Time;durP1;ratioP1;P1;durP2;ratioP2;P2;SDS_P1;SDS_P2;PMS_P1;PMS_P2;Temp;Humidity;BMP_temperature;BMP_pressure;BME280_temperature;BME280_humidity;BME280_pressure;Samples;Min_cycle;Max_cycle;Signal;HPM_P1;HPM_P2
2022/09/29 00:02:19;;;;;;;11.93;6.70;;;;;;;;;;5065148;28;20056;-76
2022/09/29 00:04:45;;;;;;;11.95;6.88;;;;;;;;;;5064331;28;20072;-76
2022/09/29 00:07:11;;;;;;;12.63;6.85;;;;;;;;;;5056160;28;20184;-75
2022/09/29 00:09:37;;;;;;;14.57;7.45;;;;;;;;;;5079605;28;20051;-76
2022/09/29 00:12:03;;;;;;;12.85;7.13;;;;;;;;;;5087119;28;20047;-76
2022/09/29 00:14:29;;;;;;;12.57;7.53;;;;;;;;;;5076011;28;20638;-77
2022/09/29 00:16:56;;;;;;;12.63;7.50;;;;;;;;;;5060346;28;20056;-77
2022/09/29 00:19:22;;;;;;;;;;;;;;;;;;5064887;28;20040;-77
2022/09/29 00:21:48;;;;;;;12.60;7.78;;;;;;;;;;5047904;28;20022;-77
2022/09/29 00:24:14;;;;;;;13.25;7.38;;;;;;;;;;5053451;28;20330;-76
2022/09/29 00:26:40;;;;;;;12.00;7.82;;;;;;;;;;5067179;28;20455;-77
2022/09/29 00:29:06;;;;;;;14.10;8.02;;;;;;;;;;5061317;28;20084;-77
2022/09/29 00:31:35;;;;;;;12.93;8.02;;;;;;;;;;5082238;28;20055;-77
2022/09/29 00:34:01;;;;;;;13.32;8.95;;;;;;;;;;5084651;28;20141;-77
2022/09/29 00:36:29;;;;;;;14.13;8.57;;;;;;;;;;5066372;28;20123;-77
2022/09/29 00:38:55;;;;;;;13.43;7.93;;;;;;;;;;5063184;28;20091;-77
2022/09/29 00:41:23;;;;;;;;;;;;;;;;;;5056045;28;20040;-77
2022/09/29 00:43:52;;;;;;;14.20;8.07;;;;;;;;;;5079958;28;19928;-77
2022/09/29 00:46:24;;;;;;;15.32;8.18;;;;;;;;;;5054172;28;20111;-77
2022/09/29 00:48:50;;;;;;;16.83;8.50;;;;;;;;;;5051858;28;20041;-77
2022/09/29 00:51:18;;;;;;;14.23;9.27;;;;;;;;;;5051155;28;20425;-76
2022/09/29 00:53:44;;;;;;;15.98;9.00;;;;;;;;;;5051723;28;20144;-78
2022/09/29 00:56:12;;;;;;;13.75;8.65;;;;;;;;;;5075395;28;20123;-78
2022/09/29 00:58:53;;;;;;;15.80;9.93;;;;;;;;;;5076575;28;20048;-78
2022/09/29 01:01:20;;;;;;;15.45;9.45;;;;;;;;;;5065706;28;20125;-78
2022/09/29 01:03:47;;;;;;;15.90;9.50;;;;;;;;;;5070298;28;20136;-77
2022/09/29 01:06:13;;;;;;;14.48;9.68;;;;;;;;;;5057563;28;20384;-78
2022/09/29 01:08:42;;;;;;;16.20;10.27;;;;;;;;;;5058154;28;20072;-78
2022/09/29 01:11:09;;;;;;;16.55;10.95;;;;;;;;;;5057446;28;20045;-78
2022/09/29 01:13:35;;;;;;;16.45;10.52;;;;;;;;;;5067780;28;20464;-77
2022/09/29 01:16:01;;;;;;;15.98;10.18;;;;;;;;;;5063671;28;20051;-78
2022/09/29 01:18:28;;;;;;;16.48;9.93;;;;;;;;;;5050521;28;20059;-78
2022/09/29 01:21:05;;;;;;;16.58;10.68;;;;;;;;;;5059933;28;20052;-78
2022/09/29 01:23:41;;;;;;;16.80;10.82;;;;;;;;;;5070720;28;20055;-77
2022/09/29 01:26:26;;;;;;;15.13;10.82;;;;;;;;;;5064839;28;20127;-78
2022/09/29 01:29:11;;;;;;;14.57;10.25;;;;;;;;;;5053859;28;20048;-78
2022/09/29 01:31:57;;;;;;;19.27;11.40;;;;;;;;;;5065021;28;20048;-79
2022/09/29 01:34:31;;;;;;;15.40;10.82;;;;;;;;;;5083912;28;20044;-75
2022/09/29 01:37:00;;;;;;;16.52;10.80;;;;;;;;;;5079354;28;20496;-78
2022/09/29 01:39:38;;;;;;;16.08;10.60;;;;;;;;;;5060372;28;20060;-76
2022/09/29 01:42:04;;;;;;;15.43;10.80;;;;;;;;;;5068849;28;20382;-79
2022/09/29 01:44:33;;;;;;;16.88;10.80;;;;;;;;;;5068039;28;20152;-77
2022/09/29 01:47:03;;;;;;;16.77;12.43;;;;;;;;;;5090526;28;20056;-78
2022/09/29 01:49:31;;;;;;;16.02;11.32;;;;;;;;;;5084704;28;20230;-78
2022/09/29 01:52:05;;;;;;;15.88;10.95;;;;;;;;;;5049895;28;20048;-78
2022/09/29 01:54:42;;;;;;;16.25;10.48;;;;;;;;;;5064521;28;20373;-77
2022/09/29 01:57:10;;;;;;;17.17;10.45;;;;;;;;;;5059275;28;20567;-78
2022/09/29 01:59:49;;;;;;;15.77;10.88;;;;;;;;;;5088591;28;20189;-77
2022/09/29 02:02:18;;;;;;;18.73;11.75;;;;;;;;;;5069304;28;20056;-79
2022/09/29 02:04:49;;;;;;;17.52;11.73;;;;;;;;;;5064818;28;20048;-75
2022/09/29 02:07:29;;;;;;;18.20;12.38;;;;;;;;;;5049663;28;20353;-76
2022/09/29 02:10:00;;;;;;;17.88;11.65;;;;;;;;;;5050131;28;20084;-76
2022/09/29 02:12:28;;;;;;;15.95;10.93;;;;;;;;;;5083746;28;20056;-72
2022/09/29 02:14:54;;;;;;;17.15;11.88;;;;;;;;;;5079776;28;20555;-78
2022/09/29 02:17:23;;;;;;;16.25;12.07;;;;;;;;;;5057605;28;20045;-81
2022/09/29 02:19:50;;;;;;;17.98;12.50;;;;;;;;;;5057755;28;20135;-77
2022/09/29 02:22:17;;;;;;;20.00;13.45;;;;;;;;;;5065343;28;20048;-77
2022/09/29 02:24:44;;;;;;;17.63;12.02;;;;;;;;;;5069910;28;20101;-78
2022/09/29 02:27:10;;;;;;;;;;;;;;;;;;5072774;28;20124;-79
2022/09/29 02:29:36;;;;;;;17.00;12.40;;;;;;;;;;5048978;28;20038;-78
2022/09/29 02:32:03;;;;;;;17.52;11.77;;;;;;;;;;5049746;28;20044;-78
2022/09/29 02:34:31;;;;;;;18.98;13.05;;;;;;;;;;5069658;28;20136;-72
2022/09/29 02:37:16;;;;;;;18.05;12.07;;;;;;;;;;5070106;28;20056;-78
2022/09/29 02:39:56;;;;;;;21.55;13.93;;;;;;;;;;5077827;28;20058;-77
2022/09/29 02:42:22;;;;;;;18.38;12.75;;;;;;;;;;5067182;28;20056;-76
2022/09/29 02:44:51;;;;;;;20.08;13.32;;;;;;;;;;5068826;28;20511;-77
2022/09/29 02:47:35;;;;;;;16.83;11.23;;;;;;;;;;5069993;28;20071;-77
2022/09/29 02:50:14;;;;;;;17.25;12.23;;;;;;;;;;5049901;28;20057;-78
2022/09/29 02:52:41;;;;;;;17.35;12.57;;;;;;;;;;5073595;28;20052;-76
2022/09/29 02:55:28;;;;;;;18.30;12.30;;;;;;;;;;5050441;28;20084;-78
2022/09/29 02:57:59;;;;;;;18.45;12.52;;;;;;;;;;5049563;28;20136;-78
2022/09/29 03:00:26;;;;;;;19.73;12.43;;;;;;;;;;5069791;28;20044;-79
2022/09/29 03:02:52;;;;;;;17.83;13.07;;;;;;;;;;5067509;28;20047;-74
2022/09/29 03:05:19;;;;;;;17.92;12.70;;;;;;;;;;5067213;28;20044;-79
2022/09/29 03:07:45;;;;;;;21.55;14.05;;;;;;;;;;5049509;28;20067;-79
2022/09/29 03:10:12;;;;;;;18.35;13.13;;;;;;;;;;5080764;28;20342;-79
2022/09/29 03:12:38;;;;;;;18.35;13.15;;;;;;;;;;5068984;28;20048;-76
2022/09/29 03:15:05;;;;;;;19.35;12.70;;;;;;;;;;5053717;28;20144;-77
2022/09/29 03:17:32;;;;;;;20.08;13.48;;;;;;;;;;5062652;28;20075;-80
2022/09/29 03:19:58;;;;;;;20.15;13.75;;;;;;;;;;5067900;28;20219;-79
2022/09/29 03:22:24;;;;;;;19.50;13.25;;;;;;;;;;5068906;28;20049;-79
2022/09/29 03:24:50;;;;;;;19.67;14.48;;;;;;;;;;5067844;28;20157;-78
2022/09/29 03:27:16;;;;;;;19.63;13.30;;;;;;;;;;5069127;28;20115;-78
2022/09/29 03:29:42;;;;;;;20.27;14.05;;;;;;;;;;5061345;28;20040;-76
2022/09/29 03:32:08;;;;;;;21.35;13.85;;;;;;;;;;5088024;28;20113;-79
2022/09/29 03:34:35;;;;;;;20.60;14.18;;;;;;;;;;5081523;28;20128;-78
2022/09/29 03:37:01;;;;;;;20.63;14.45;;;;;;;;;;5068703;28;20112;-81
2022/09/29 03:39:27;;;;;;;;;;;;;;;;;;5068379;28;20080;-81
2022/09/29 03:41:54;;;;;;;21.88;14.00;;;;;;;;;;5057703;28;20031;-81
2022/09/29 03:44:20;;;;;;;21.33;15.02;;;;;;;;;;5083935;28;20079;-79
2022/09/29 03:46:48;;;;;;;21.75;14.57;;;;;;;;;;5048323;28;20095;-80
2022/09/29 03:49:15;;;;;;;19.17;13.02;;;;;;;;;;5049195;28;20182;-80
2022/09/29 03:51:41;;;;;;;18.60;13.32;;;;;;;;;;5064103;28;20380;-73
2022/09/29 03:54:07;;;;;;;;;;;;;;;;;;5071913;28;20056;-80
2022/09/29 03:56:33;;;;;;;20.45;13.48;;;;;;;;;;5051337;28;19931;-79
2022/09/29 03:58:59;;;;;;;;;;;;;;;;;;5061961;28;20050;-81
2022/09/29 04:01:25;;;;;;;21.90;13.85;;;;;;;;;;5060423;28;19924;-82
2022/09/29 04:03:51;;;;;;;22.42;14.35;;;;;;;;;;5059943;28;20108;-80
2022/09/29 04:06:17;;;;;;;18.38;12.98;;;;;;;;;;5066232;28;20458;-80
2022/09/29 04:08:43;;;;;;;20.65;14.40;;;;;;;;;;5067903;28;20499;-73
2022/09/29 04:11:09;;;;;;;21.50;14.95;;;;;;;;;;5067654;28;20056;-82
2022/09/29 04:13:36;;;;;;;19.63;14.23;;;;;;;;;;5064633;28;20047;-81
2022/09/29 04:16:03;;;;;;;21.45;14.40;;;;;;;;;;5060937;28;20441;-82
2022/09/29 04:18:30;;;;;;;20.17;14.88;;;;;;;;;;5065656;28;20400;-82
2022/09/29 04:20:59;;;;;;;20.52;14.85;;;;;;;;;;5070862;28;20135;-81
2022/09/29 04:23:25;;;;;;;21.40;15.32;;;;;;;;;;5064854;28;20040;-81
2022/09/29 04:25:51;;;;;;;21.52;15.43;;;;;;;;;;5063585;28;20491;-81
2022/09/29 04:28:18;;;;;;;22.58;14.13;;;;;;;;;;5068865;28;20511;-82
2022/09/29 04:30:44;;;;;;;19.70;14.00;;;;;;;;;;5064472;28;20051;-82
2022/09/29 04:33:10;;;;;;;20.50;14.05;;;;;;;;;;5047912;28;20148;-81
2022/09/29 04:35:36;;;;;;;21.30;13.88;;;;;;;;;;5060619;28;20066;-78
2022/09/29 04:38:07;;;;;;;20.33;14.00;;;;;;;;;;5048236;28;20080;-82
2022/09/29 04:40:33;;;;;;;22.77;15.38;;;;;;;;;;5048684;28;20457;-82
2022/09/29 04:42:59;;;;;;;20.38;14.60;;;;;;;;;;5066316;28;20080;-81
2022/09/29 04:45:25;;;;;;;20.63;14.57;;;;;;;;;;5068404;28;20056;-82
2022/09/29 04:47:51;;;;;;;20.23;14.63;;;;;;;;;;5060823;28;20106;-80
2022/09/29 04:50:17;;;;;;;19.83;13.52;;;;;;;;;;5048663;28;20060;-83
2022/09/29 04:52:43;;;;;;;20.35;14.55;;;;;;;;;;5063814;28;20456;-82
2022/09/29 04:55:12;;;;;;;;;;;;;;;;;;5055235;28;20056;-81
2022/09/29 04:57:38;;;;;;;24.05;16.33;;;;;;;;;;5053353;28;20395;-75
2022/09/29 05:00:06;;;;;;;22.98;16.35;;;;;;;;;;5060708;28;20157;-81
2022/09/29 05:02:32;;;;;;;22.45;16.38;;;;;;;;;;5057280;28;20060;-82
2022/09/29 05:04:58;;;;;;;;;;;;;;;;;;5067930;28;20052;-83
2022/09/29 05:07:24;;;;;;;21.92;14.88;;;;;;;;;;5062936;28;19925;-82
2022/09/29 05:09:50;;;;;;;20.73;14.95;;;;;;;;;;5068050;28;20121;-82
2022/09/29 05:12:16;;;;;;;21.25;15.05;;;;;;;;;;5057588;28;20369;-82
2022/09/29 05:14:48;;;;;;;23.55;16.70;;;;;;;;;;5076729;28;20125;-83
2022/09/29 05:17:15;;;;;;;25.50;15.82;;;;;;;;;;5066240;28;20040;-82
2022/09/29 05:19:41;;;;;;;22.13;15.98;;;;;;;;;;5067822;28;20064;-82
2022/09/29 05:22:08;;;;;;;22.67;15.93;;;;;;;;;;5051712;28;20060;-74
2022/09/29 05:24:34;;;;;;;21.27;14.73;;;;;;;;;;5053608;28;20072;-82
2022/09/29 05:27:00;;;;;;;23.23;16.23;;;;;;;;;;5064175;28;20106;-81
2022/09/29 05:29:26;;;;;;;23.27;16.40;;;;;;;;;;5065871;28;20056;-83
2022/09/29 05:31:52;;;;;;;22.95;15.77;;;;;;;;;;5048070;28;20049;-81
2022/09/29 05:34:18;;;;;;;23.65;16.00;;;;;;;;;;5065639;28;20519;-80
2022/09/29 05:36:44;;;;;;;23.85;17.42;;;;;;;;;;5061518;28;20456;-81
2022/09/29 05:39:11;;;;;;;24.42;17.23;;;;;;;;;;5058395;28;20445;-81
2022/09/29 05:41:37;;;;;;;;;;;;;;;;;;5062548;28;20087;-81
2022/09/29 05:44:03;;;;;;;22.08;15.35;;;;;;;;;;5062282;28;19972;-80
2022/09/29 05:46:29;;;;;;;25.17;15.88;;;;;;;;;;5066412;28;20140;-81
2022/09/29 05:48:57;;;;;;;22.30;16.10;;;;;;;;;;5079048;28;20479;-81
2022/09/29 05:51:25;;;;;;;23.60;17.10;;;;;;;;;;5067437;28;20067;-80
2022/09/29 05:53:51;;;;;;;22.95;16.20;;;;;;;;;;5068107;28;20144;-79
2022/09/29 05:56:26;;;;;;;22.20;16.15;;;;;;;;;;5067545;28;20040;-80
2022/09/29 05:58:52;;;;;;;22.65;15.75;;;;;;;;;;5056698;28;20356;-79
2022/09/29 06:01:18;;;;;;;;;;;;;;;;;;5075836;28;20060;-81
2022/09/29 06:03:45;;;;;;;22.52;15.85;;;;;;;;;;5089514;28;19920;-81
2022/09/29 06:06:12;;;;;;;23.25;16.55;;;;;;;;;;5089116;28;20108;-82
2022/09/29 06:08:38;;;;;;;22.38;16.10;;;;;;;;;;5075776;28;20119;-81
2022/09/29 06:11:09;;;;;;;20.90;16.05;;;;;;;;;;5078442;28;20043;-81
2022/09/29 06:13:42;;;;;;;23.98;17.10;;;;;;;;;;5069420;28;20376;-82
2022/09/29 06:16:09;;;;;;;23.10;17.05;;;;;;;;;;5065773;28;20130;-81
2022/09/29 06:18:35;;;;;;;26.35;17.63;;;;;;;;;;5069644;28;20100;-81
2022/09/29 06:21:01;;;;;;;;;;;;;;;;;;5083312;28;20055;-83
2022/09/29 06:23:27;;;;;;;25.00;17.98;;;;;;;;;;5088948;28;19920;-83
2022/09/29 06:26:03;;;;;;;26.27;18.25;;;;;;;;;;5069589;28;20055;-82
2022/09/29 06:28:30;;;;;;;23.73;18.10;;;;;;;;;;5051152;28;20136;-83
2022/09/29 06:31:00;;;;;;;25.23;17.60;;;;;;;;;;5066353;28;20222;-83
2022/09/29 06:33:26;;;;;;;29.58;18.23;;;;;;;;;;5067995;28;20658;-83
2022/09/29 06:38:48;;;;;;;26.58;19.75;;;;;;;;;;5086728;28;20058;-83
2022/09/29 06:41:14;;;;;;;25.85;16.67;;;;;;;;;;5086812;28;20050;-83
2022/09/29 06:43:40;;;;;;;25.92;18.75;;;;;;;;;;5089226;28;20169;-83
2022/09/29 06:46:06;;;;;;;23.92;17.95;;;;;;;;;;5083609;28;20049;-82
2022/09/29 06:48:32;;;;;;;28.33;18.88;;;;;;;;;;5078429;28;20048;-83
2022/09/29 06:50:59;;;;;;;26.10;18.67;;;;;;;;;;5075725;28;20048;-83
2022/09/29 06:53:25;;;;;;;29.63;20.35;;;;;;;;;;5056975;28;20064;-83
2022/09/29 06:55:55;;;;;;;27.75;18.67;;;;;;;;;;5065282;28;20117;-83
2022/09/29 06:58:24;;;;;;;29.25;21.08;;;;;;;;;;5068537;28;20108;-83
2022/09/29 07:00:50;;;;;;;28.38;20.88;;;;;;;;;;5070384;28;20101;-82
2022/09/29 07:03:19;;;;;;;29.50;21.90;;;;;;;;;;5064588;28;20051;-83
2022/09/29 07:05:45;;;;;;;26.00;19.20;;;;;;;;;;5067080;28;20078;-83
2022/09/29 07:08:11;;;;;;;30.92;21.65;;;;;;;;;;5065257;28;20054;-75
2022/09/29 07:10:38;;;;;;;29.65;21.98;;;;;;;;;;5066577;28;20088;-83
2022/09/29 07:13:04;;;;;;;32.42;24.38;;;;;;;;;;5064339;28;20484;-85
2022/09/29 07:15:30;;;;;;;;;;;;;;;;;;5066977;28;20056;-80
2022/09/29 07:18:00;;;;;;;32.72;22.63;;;;;;;;;;5066213;28;20018;-84
2022/09/29 07:20:27;;;;;;;31.75;23.17;;;;;;;;;;5065129;28;20048;-84
2022/09/29 07:22:53;;;;;;;32.88;22.85;;;;;;;;;;5064100;28;20131;-87
2022/09/29 07:25:19;;;;;;;32.88;22.83;;;;;;;;;;5065049;28;20275;-84
2022/09/29 07:27:46;;;;;;;31.25;22.80;;;;;;;;;;5067185;28;20048;-83
2022/09/29 07:30:12;;;;;;;35.15;24.67;;;;;;;;;;5072967;28;20063;-87
2022/09/29 07:32:38;;;;;;;33.30;23.63;;;;;;;;;;5085720;28;20133;-86
2022/09/29 07:35:05;;;;;;;32.05;23.60;;;;;;;;;;5068572;28;20460;-86
2022/09/29 07:37:31;;;;;;;35.70;25.60;;;;;;;;;;5071840;28;20055;-83
2022/09/29 07:39:58;;;;;;;35.38;25.52;;;;;;;;;;5064331;28;20352;-85
2022/09/29 07:42:24;;;;;;;32.65;24.70;;;;;;;;;;5064002;28;20475;-85
2022/09/29 07:44:50;;;;;;;35.17;24.85;;;;;;;;;;5062500;28;20131;-84
2022/09/29 07:47:16;;;;;;;34.70;24.20;;;;;;;;;;5059627;28;20041;-76
2022/09/29 07:49:57;;;;;;;36.38;25.33;;;;;;;;;;5065996;28;20461;-81
2022/09/29 07:52:23;;;;;;;34.90;25.05;;;;;;;;;;5062378;28;20052;-83
2022/09/29 07:54:49;;;;;;;34.75;25.83;;;;;;;;;;5063671;28;20040;-82
2022/09/29 07:57:15;;;;;;;35.47;25.15;;;;;;;;;;5064132;28;20041;-83
2022/09/29 07:59:41;;;;;;;35.20;25.90;;;;;;;;;;5065409;28;20231;-83
2022/09/29 08:02:08;;;;;;;38.05;26.90;;;;;;;;;;5061361;28;20052;-84
2022/09/29 08:04:34;;;;;;;38.72;27.65;;;;;;;;;;5065003;28;20107;-84
2022/09/29 08:07:00;;;;;;;39.85;27.88;;;;;;;;;;5066137;28;20160;-82
2022/09/29 08:09:30;;;;;;;44.03;38.83;;;;;;;;;;5063804;28;20075;-80
2022/09/29 08:11:57;;;;;;;39.60;30.30;;;;;;;;;;5064751;28;20106;-82
2022/09/29 08:14:23;;;;;;;42.72;31.42;;;;;;;;;;5064505;28;20056;-82
2022/09/29 08:16:49;;;;;;;40.47;28.90;;;;;;;;;;5064619;28;20490;-83
2022/09/29 08:19:15;;;;;;;43.35;29.17;;;;;;;;;;5065729;28;20063;-84
2022/09/29 08:21:41;;;;;;;45.45;32.67;;;;;;;;;;5061509;28;20117;-81
2022/09/29 08:24:07;;;;;;;41.40;30.25;;;;;;;;;;5065671;28;20148;-82
2022/09/29 08:26:34;;;;;;;43.75;31.17;;;;;;;;;;5062920;28;20450;-80
2022/09/29 08:29:01;;;;;;;43.45;31.63;;;;;;;;;;5065803;28;20116;-81
2022/09/29 08:31:27;;;;;;;42.60;31.73;;;;;;;;;;5062360;28;20040;-81
2022/09/29 08:33:55;;;;;;;43.55;29.70;;;;;;;;;;5063685;28;20056;-82
2022/09/29 08:36:22;;;;;;;41.40;31.23;;;;;;;;;;5062780;28;20056;-81
2022/09/29 08:38:49;;;;;;;41.22;31.52;;;;;;;;;;5063189;28;20178;-81
2022/09/29 08:41:26;;;;;;;45.65;32.80;;;;;;;;;;5063314;28;20121;-74
2022/09/29 08:43:52;;;;;;;;;;;;;;;;;;5062760;28;20048;-82
2022/09/29 08:46:25;;;;;;;43.53;31.60;;;;;;;;;;5065455;28;19935;-81
2022/09/29 08:48:52;;;;;;;42.22;32.75;;;;;;;;;;5064651;28;20043;-80
2022/09/29 08:51:26;;;;;;;41.30;33.53;;;;;;;;;;5065903;28;20387;-81
2022/09/29 08:53:54;;;;;;;43.28;33.65;;;;;;;;;;5066023;28;20188;-81
2022/09/29 08:56:20;;;;;;;43.88;33.80;;;;;;;;;;5064510;28;20064;-76
2022/09/29 08:58:46;;;;;;;46.35;34.40;;;;;;;;;;5078845;28;20067;-84
2022/09/29 09:01:31;;;;;;;41.85;33.15;;;;;;;;;;5064383;28;20093;-79
2022/09/29 09:04:00;;;;;;;44.60;33.38;;;;;;;;;;5061664;28;20531;-79
2022/09/29 09:06:31;;;;;;;39.55;31.15;;;;;;;;;;5083771;28;20064;-80
2022/09/29 09:09:04;;;;;;;42.97;33.58;;;;;;;;;;5069499;28;20040;-80
2022/09/29 09:11:41;;;;;;;35.72;28.85;;;;;;;;;;5067891;28;20059;-74
2022/09/29 09:14:25;;;;;;;40.55;29.77;;;;;;;;;;5065340;28;20047;-80
2022/09/29 09:16:51;;;;;;;38.60;25.95;;;;;;;;;;5066183;28;20048;-80
2022/09/29 09:19:29;;;;;;;30.30;20.98;;;;;;;;;;5069671;28;20049;-82
2022/09/29 09:22:06;;;;;;;29.77;20.63;;;;;;;;;;5074254;28;20181;-80
2022/09/29 09:24:38;;;;;;;26.55;19.90;;;;;;;;;;5067866;28;20052;-74
2022/09/29 09:27:04;;;;;;;26.45;19.58;;;;;;;;;;5088538;28;20460;-79
2022/09/29 09:29:39;;;;;;;23.80;16.80;;;;;;;;;;5091114;28;20379;-79
2022/09/29 09:32:14;;;;;;;23.60;18.50;;;;;;;;;;5071347;28;20074;-79
2022/09/29 09:34:54;;;;;;;24.45;17.98;;;;;;;;;;5088185;28;20050;-79
2022/09/29 09:37:21;;;;;;;25.63;17.95;;;;;;;;;;5086873;28;20044;-81
2022/09/29 09:39:57;;;;;;;19.88;14.57;;;;;;;;;;5089458;28;20056;-79
2022/09/29 09:42:25;;;;;;;20.75;12.27;;;;;;;;;;5083106;28;20474;-77
2022/09/29 09:45:04;;;;;;;17.95;11.95;;;;;;;;;;5066902;28;20044;-79
2022/09/29 09:47:33;;;;;;;14.75;9.05;;;;;;;;;;5076003;28;20078;-78
2022/09/29 09:50:01;;;;;;;14.85;8.50;;;;;;;;;;5086474;28;20044;-78
2022/09/29 09:52:47;;;;;;;15.05;8.32;;;;;;;;;;5089871;28;20040;-79
2022/09/29 09:55:20;;;;;;;13.13;6.70;;;;;;;;;;5057705;28;20483;-78
2022/09/29 09:57:51;;;;;;;12.45;6.95;;;;;;;;;;5067493;28;20074;-76
2022/09/29 10:00:25;;;;;;;13.93;7.07;;;;;;;;;;5070225;28;20119;-77
2022/09/29 10:02:53;;;;;;;11.80;6.85;;;;;;;;;;5069713;28;20126;-76
2022/09/29 10:05:23;;;;;;;11.88;6.30;;;;;;;;;;5068615;28;20137;-74
2022/09/29 10:07:50;;;;;;;12.38;6.38;;;;;;;;;;5068021;28;20330;-75
2022/09/29 10:10:17;;;;;;;11.63;6.68;;;;;;;;;;5066369;28;20415;-77
2022/09/29 10:12:44;;;;;;;14.15;6.53;;;;;;;;;;5066149;28;20096;-77
2022/09/29 10:15:36;;;;;;;12.30;5.93;;;;;;;;;;5070782;28;20119;-74
2022/09/29 10:18:11;;;;;;;13.32;5.80;;;;;;;;;;5047270;28;20060;-75
2022/09/29 10:20:38;;;;;;;13.38;6.90;;;;;;;;;;5065677;28;20457;-71
2022/09/29 10:23:23;;;;;;;8.88;4.13;;;;;;;;;;5064294;28;20045;-75
2022/09/29 10:25:54;;;;;;;12.00;5.85;;;;;;;;;;5055721;28;20482;-75
2022/09/29 10:28:21;;;;;;;12.73;5.97;;;;;;;;;;5075655;28;20055;-74
2022/09/29 10:30:47;;;;;;;12.65;6.22;;;;;;;;;;5071640;28;20045;-75
2022/09/29 10:33:18;;;;;;;11.82;6.60;;;;;;;;;;5070613;28;20076;-76
2022/09/29 10:35:46;;;;;;;12.23;5.80;;;;;;;;;;5085839;28;20531;-74
2022/09/29 10:38:17;;;;;;;11.63;5.97;;;;;;;;;;5089229;28;20086;-75
2022/09/29 10:40:57;;;;;;;10.90;5.50;;;;;;;;;;5063493;28;20124;-74
2022/09/29 10:43:25;;;;;;;10.68;5.18;;;;;;;;;;5066728;28;20076;-75
2022/09/29 10:45:57;;;;;;;11.10;5.80;;;;;;;;;;5057294;28;20113;-74
2022/09/29 10:48:24;;;;;;;11.93;6.28;;;;;;;;;;5067839;28;20052;-76
2022/09/29 10:51:03;;;;;;;13.90;5.03;;;;;;;;;;5096577;28;20059;-74
2022/09/29 10:53:34;;;;;;;10.20;4.93;;;;;;;;;;5088963;28;20445;-73
2022/09/29 10:56:04;;;;;;;9.07;4.10;;;;;;;;;;5087778;28;20067;-72
2022/09/29 10:58:34;;;;;;;9.55;4.10;;;;;;;;;;5084702;28;20051;-74
2022/09/29 11:01:07;;;;;;;26.73;4.75;;;;;;;;;;5072416;28;20519;-73
2022/09/29 11:03:34;;;;;;;10.55;4.45;;;;;;;;;;5085832;28;20044;-74
2022/09/29 11:06:00;;;;;;;11.07;4.07;;;;;;;;;;5086901;28;20063;-70
2022/09/29 11:08:26;;;;;;;12.93;4.10;;;;;;;;;;5082987;28;20079;-74
2022/09/29 11:11:06;;;;;;;8.65;3.67;;;;;;;;;;5087872;28;20125;-74
2022/09/29 11:13:37;;;;;;;7.68;3.42;;;;;;;;;;5079303;28;20051;-74
2022/09/29 11:16:05;;;;;;;8.43;3.47;;;;;;;;;;5087115;28;20124;-72
2022/09/29 11:18:36;;;;;;;8.18;3.38;;;;;;;;;;5070241;28;20074;-73
2022/09/29 11:21:13;;;;;;;7.45;2.63;;;;;;;;;;5076269;28;20139;-73
2022/09/29 11:23:55;;;;;;;7.72;2.85;;;;;;;;;;5064681;28;20063;-73
2022/09/29 11:26:21;;;;;;;8.20;3.42;;;;;;;;;;5064334;28;20044;-73
2022/09/29 11:29:05;;;;;;;7.53;3.13;;;;;;;;;;5056325;28;20047;-71
2022/09/29 11:31:31;;;;;;;8.73;2.85;;;;;;;;;;5069188;28;20463;-72
2022/09/29 11:34:03;;;;;;;9.23;3.53;;;;;;;;;;5066445;28;20127;-73
2022/09/29 11:36:32;;;;;;;9.43;3.95;;;;;;;;;;5086253;28;20083;-71
2022/09/29 11:39:02;;;;;;;8.98;3.75;;;;;;;;;;5070044;28;20056;-73
2022/09/29 11:41:47;;;;;;;8.05;3.17;;;;;;;;;;5064932;28;20040;-73
2022/09/29 11:44:25;;;;;;;8.35;3.05;;;;;;;;;;5086421;28;20067;-71
2022/09/29 11:47:02;;;;;;;9.13;3.10;;;;;;;;;;5083300;28;20044;-74
2022/09/29 11:49:28;;;;;;;;;;;;;;;;;;5086933;28;20209;-73
2022/09/29 11:52:17;;;;;;;8.55;3.47;;;;;;;;;;5064938;28;20039;-72
2022/09/29 11:54:46;;;;;;;9.82;3.35;;;;;;;;;;5073792;28;20127;-73
2022/09/29 11:57:21;;;;;;;8.70;3.22;;;;;;;;;;5061341;28;20049;-75
2022/09/29 11:59:57;;;;;;;7.88;3.13;;;;;;;;;;5064980;28;20041;-73
2022/09/29 12:02:38;;;;;;;8.02;3.20;;;;;;;;;;5064727;28;20044;-74
2022/09/29 12:05:04;;;;;;;7.60;3.30;;;;;;;;;;5064412;28;20487;-74
2022/09/29 12:12:59;;;;;;;8.70;3.10;;;;;;;;;;5006524;28;20492;-71
2022/09/29 12:15:31;;;;;;;6.20;2.60;;;;;;;;;;4978860;28;20050;-73
2022/09/29 12:18:00;;;;;;;7.57;2.50;;;;;;;;;;4995550;28;20491;-75
2022/09/29 12:20:29;;;;;;;4.80;2.05;;;;;;;;;;5012491;28;20056;-73
2022/09/29 12:22:57;;;;;;;7.28;2.55;;;;;;;;;;4995574;28;20437;-73
2022/09/29 12:25:25;;;;;;;8.82;2.60;;;;;;;;;;5012568;28;20049;-72
2022/09/29 12:27:53;;;;;;;5.85;2.25;;;;;;;;;;5012421;28;20200;-73
2022/09/29 12:30:22;;;;;;;4.95;2.10;;;;;;;;;;5012881;28;20049;-74
2022/09/29 12:32:52;;;;;;;6.43;2.25;;;;;;;;;;5013884;28;20385;-77
2022/09/29 12:35:37;;;;;;;6.25;2.20;;;;;;;;;;4963989;28;20057;-75
2022/09/29 12:38:16;;;;;;;7.25;2.50;;;;;;;;;;5015184;28;20396;-78
2022/09/29 12:40:51;;;;;;;5.50;2.20;;;;;;;;;;5017786;28;20085;-77
2022/09/29 12:43:24;;;;;;;5.97;2.28;;;;;;;;;;5017610;28;20472;-75
2022/09/29 12:46:03;;;;;;;5.50;1.98;;;;;;;;;;5017656;28;20046;-76
2022/09/29 12:48:44;;;;;;;4.75;2.08;;;;;;;;;;5017852;28;20050;-75
2022/09/29 12:51:17;;;;;;;6.47;2.20;;;;;;;;;;4999592;28;20054;-74
2022/09/29 12:53:50;;;;;;;4.40;1.90;;;;;;;;;;5016474;28;20062;-76
2022/09/29 12:56:25;;;;;;;10.18;2.28;;;;;;;;;;5017475;28;20389;-76
2022/09/29 12:59:03;;;;;;;5.72;2.00;;;;;;;;;;5000364;28;20546;-76
2022/09/29 13:01:35;;;;;;;5.72;2.00;;;;;;;;;;5000215;28;20045;-74
2022/09/29 13:04:07;;;;;;;5.18;1.80;;;;;;;;;;5017586;28;20061;-77
2022/09/29 13:06:39;;;;;;;6.32;1.90;;;;;;;;;;5017758;28;20042;-79
2022/09/29 13:09:20;;;;;;;5.75;2.10;;;;;;;;;;5017694;28;20050;-77
2022/09/29 13:11:53;;;;;;;6.20;2.10;;;;;;;;;;5024485;28;20129;-77
2022/09/29 13:14:43;;;;;;;7.32;2.10;;;;;;;;;;5018116;28;20162;-77
2022/09/29 13:17:21;;;;;;;7.22;2.13;;;;;;;;;;5017451;28;20053;-77
2022/09/29 13:19:50;;;;;;;7.03;2.38;;;;;;;;;;5016950;28;20056;-75
2022/09/29 13:22:17;;;;;;;7.85;2.38;;;;;;;;;;5017368;28;20050;-75
2022/09/29 13:24:44;;;;;;;7.63;2.63;;;;;;;;;;5016806;28;20050;-76
2022/09/29 13:27:10;;;;;;;;;;;;;;;;;;5017853;28;20432;-76
2022/09/29 13:29:45;;;;;;;5.75;2.30;;;;;;;;;;4999205;28;19921;-74
2022/09/29 13:32:12;;;;;;;9.80;2.53;;;;;;;;;;5017036;28;20048;-76
2022/09/29 13:34:39;;;;;;;7.75;2.38;;;;;;;;;;5000323;28;20415;-75
2022/09/29 13:37:08;;;;;;;5.65;1.80;;;;;;;;;;5016836;28;20052;-77
2022/09/29 13:39:35;;;;;;;7.95;2.28;;;;;;;;;;5021779;28;20064;-73
2022/09/29 13:42:24;;;;;;;5.85;2.13;;;;;;;;;;5037724;28;20042;-76
2022/09/29 13:45:33;;;;;;;3.72;1.90;;;;;;;;;;5010282;28;20474;-75
2022/09/29 13:48:01;;;;;;;3.97;1.70;;;;;;;;;;4937415;29;20075;-76
2022/09/29 13:50:48;;;;;;;5.68;1.80;;;;;;;;;;4936024;29;20083;-76
2022/09/29 13:53:32;;;;;;;3.10;1.73;;;;;;;;;;4989645;28;20134;-77
2022/09/29 13:56:01;;;;;;;3.30;1.60;;;;;;;;;;4999583;28;20057;-74
2022/09/29 13:58:30;;;;;;;3.13;1.60;;;;;;;;;;5016289;28;20104;-77
2022/09/29 14:01:01;;;;;;;5.95;2.10;;;;;;;;;;5016774;28;20085;-77
2022/09/29 14:03:28;;;;;;;3.63;1.80;;;;;;;;;;4982979;28;20076;-77
2022/09/29 14:06:06;;;;;;;4.13;1.65;;;;;;;;;;5016093;28;20054;-78
2022/09/29 14:08:49;;;;;;;5.35;1.92;;;;;;;;;;5016109;28;20049;-77
2022/09/29 14:11:30;;;;;;;7.28;2.20;;;;;;;;;;4998197;28;20057;-77
2022/09/29 14:14:03;;;;;;;12.57;3.03;;;;;;;;;;4999150;28;20050;-74
2022/09/29 14:16:33;;;;;;;10.93;2.55;;;;;;;;;;5015984;28;20480;-74
2022/09/29 14:18:59;;;;;;;10.43;2.60;;;;;;;;;;5016197;28;20046;-74
2022/09/29 14:22:05;;;;;;;10.75;3.20;;;;;;;;;;5015535;28;20495;-74
2022/09/29 14:24:44;;;;;;;13.18;3.90;;;;;;;;;;4936639;29;20059;-71
2022/09/29 14:27:19;;;;;;;10.20;2.75;;;;;;;;;;4935992;29;20059;-71
2022/09/29 14:29:51;;;;;;;8.73;3.08;;;;;;;;;;4985941;28;20408;-71
2022/09/29 14:32:21;;;;;;;7.60;2.20;;;;;;;;;;5015681;28;20042;-72
2022/09/29 14:34:49;;;;;;;8.20;2.70;;;;;;;;;;5016072;28;20061;-72
2022/09/29 14:37:20;;;;;;;9.85;3.30;;;;;;;;;;5015786;28;20073;-73
2022/09/29 14:40:27;;;;;;;10.57;3.00;;;;;;;;;;5015318;28;20396;-72
2022/09/29 14:42:33;;;;;;;8.77;2.80;;;;;;;;;;5014896;28;20218;-72
2022/09/29 14:53:31;;;;;;;12.80;3.40;;;;;;;;;;5015200;28;20064;-72
2022/09/29 14:56:04;;;;;;;10.20;3.00;;;;;;;;;;5014900;28;20058;-71
2022/09/29 14:59:02;;;;;;;9.02;3.28;;;;;;;;;;5015558;28;20133;-73
2022/09/29 15:01:29;;;;;;;12.75;4.10;;;;;;;;;;4970410;28;20053;-72
2022/09/29 15:04:18;;;;;;;7.80;2.65;;;;;;;;;;5014998;28;20081;-72
2022/09/29 15:06:46;;;;;;;7.18;2.42;;;;;;;;;;5005029;28;20058;-72